sensor_id;sensor_type;location;lat;lon;timestamp;pressure;altitude;pressure_sealevel;temperature;humidity
44001;BME280;29660;42.892;24.710;2023-05-29T00:04:48;96846.03;;;14.98;100.00
44001;BME280;29660;42.892;24.710;2023-05-29T00:10:11;96359.53;;;11.89;100.00
44001;BME280;29660;42.892;24.710;2023-05-29T00:15:33;96367.53;;;11.89;100.00
44001;BME280;29660;42.892;24.710;2023-05-29T00:20:55;96910.00;;;14.96;100.00
44001;BME280;29660;42.892;24.710;2023-05-29T00:26:18;96542.41;;;12.93;100.00
44001;BME280;29660;42.892;24.710;2023-05-29T00:31:46;96826.31;;;14.77;100.00
44001;BME280;29660;42.892;24.710;2023-05-29T00:37:08;96375.16;;;11.73;100.00
44001;BME280;29660;42.892;24.710;2023-05-29T00:42:30;96855.53;;;14.87;100.00
44001;BME280;29660;42.892;24.710;2023-05-29T00:47:53;96737.63;;;14.13;100.00
44001;BME280;29660;42.892;24.710;2023-05-29T00:53:15;96705.75;;;13.85;100.00
44001;BME280;29660;42.892;24.710;2023-05-29T00:58:37;96464.22;;;12.39;100.00
44001;BME280;29660;42.892;24.710;2023-05-29T01:04:00;95978.13;;;9.36;100.00
44001;BME280;29660;42.892;24.710;2023-05-29T01:09:23;96378.84;;;11.94;100.00
44001;BME280;29660;42.892;24.710;2023-05-29T01:15:07;96890.25;;;14.92;100.00
44001;BME280;29660;42.892;24.710;2023-05-29T01:32:12;96835.16;;;14.78;100.00
44001;BME280;29660;42.892;24.710;2023-05-29T01:37:34;96795.38;;;14.54;100.00
44001;BME280;29660;42.892;24.710;2023-05-29T01:42:56;96336.25;;;11.49;100.00
44001;BME280;29660;42.892;24.710;2023-05-29T01:48:19;96743.75;;;14.22;100.00
44001;BME280;29660;42.892;24.710;2023-05-29T01:53:42;96489.75;;;12.63;100.00
44001;BME280;29660;42.892;24.710;2023-05-29T01:59:06;96825.84;;;14.75;100.00
44001;BME280;29660;42.892;24.710;2023-05-29T02:04:28;96703.84;;;13.94;100.00
44001;BME280;29660;42.892;24.710;2023-05-29T02:09:50;96341.63;;;11.58;100.00
44001;BME280;29660;42.892;24.710;2023-05-29T02:15:12;96547.88;;;12.88;100.00
44001;BME280;29660;42.892;24.710;2023-05-29T02:20:35;96313.91;;;11.37;100.00
44001;BME280;29660;42.892;24.710;2023-05-29T02:25:57;96766.31;;;14.30;100.00
44001;BME280;29660;42.892;24.710;2023-05-29T02:31:19;96286.19;;;11.15;100.00
44001;BME280;29660;42.892;24.710;2023-05-29T02:36:41;96541.22;;;12.68;100.00
44001;BME280;29660;42.892;24.710;2023-05-29T02:42:04;96351.16;;;11.42;100.00
44001;BME280;29660;42.892;24.710;2023-05-29T02:47:29;96814.63;;;14.38;100.00
44001;BME280;29660;42.892;24.710;2023-05-29T02:52:52;96702.91;;;13.73;100.00
44001;BME280;29660;42.892;24.710;2023-05-29T02:58:14;96399.75;;;11.84;100.00
44001;BME280;29660;42.892;24.710;2023-05-29T03:03:38;96489.41;;;12.38;100.00
44001;BME280;29660;42.892;24.710;2023-05-29T03:09:00;96818.44;;;14.55;100.00
44001;BME280;29660;42.892;24.710;2023-05-29T03:14:22;96861.19;;;14.77;100.00
44001;BME280;29660;42.892;24.710;2023-05-29T03:19:46;96373.25;;;11.65;100.00
44001;BME280;29660;42.892;24.710;2023-05-29T03:25:08;96359.38;;;11.54;100.00
44001;BME280;29660;42.892;24.710;2023-05-29T03:30:31;96462.22;;;12.05;100.00
44001;BME280;29660;42.892;24.710;2023-05-29T03:35:54;96808.78;;;14.36;100.00
44001;BME280;29660;42.892;24.710;2023-05-29T03:41:18;96470.94;;;12.19;100.00
44001;BME280;29660;42.892;24.710;2023-05-29T03:46:40;96851.13;;;14.74;100.00
44001;BME280;29660;42.892;24.710;2023-05-29T03:52:03;96730.97;;;14.02;100.00
44001;BME280;29660;42.892;24.710;2023-05-29T03:57:26;96490.47;;;12.37;100.00
44001;BME280;29660;42.892;24.710;2023-05-29T04:02:48;96707.16;;;13.83;100.00
44001;BME280;29660;42.892;24.710;2023-05-29T04:08:10;96899.13;;;15.02;100.00
44001;BME280;29660;42.892;24.710;2023-05-29T04:13:37;96346.00;;;11.45;100.00
44001;BME280;29660;42.892;24.710;2023-05-29T04:19:00;96902.75;;;15.06;100.00
44001;BME280;29660;42.892;24.710;2023-05-29T04:24:25;96705.09;;;13.71;100.00
44001;BME280;29660;42.892;24.710;2023-05-29T04:29:47;96731.44;;;13.95;100.00
44001;BME280;29660;42.892;24.710;2023-05-29T04:35:09;96403.06;;;11.89;100.00
44001;BME280;29660;42.892;24.710;2023-05-29T04:40:38;96896.88;;;15.21;100.00
44001;BME280;29660;42.892;24.710;2023-05-29T04:46:02;96895.50;;;14.97;100.00
44001;BME280;29660;42.892;24.710;2023-05-29T04:51:28;96026.94;;;9.63;100.00
44001;BME280;29660;42.892;24.710;2023-05-29T04:56:51;96460.78;;;12.65;100.00
44001;BME280;29660;42.892;24.710;2023-05-29T05:02:18;96811.13;;;14.98;100.00
44001;BME280;29660;42.892;24.710;2023-05-29T05:07:40;96892.38;;;15.51;100.00
44001;BME280;29660;42.892;24.710;2023-05-29T05:13:02;96735.38;;;14.67;100.00
44001;BME280;29660;42.892;24.710;2023-05-29T05:18:25;96825.28;;;15.25;100.00
44001;BME280;29660;42.892;24.710;2023-05-29T05:23:56;96921.09;;;15.77;100.00
44001;BME280;29660;42.892;24.710;2023-05-29T05:29:21;96874.63;;;15.59;100.00
44001;BME280;29660;42.892;24.710;2023-05-29T05:34:43;96908.25;;;15.82;100.00
44001;BME280;29660;42.892;24.710;2023-05-29T05:40:07;96843.84;;;15.47;100.00
44001;BME280;29660;42.892;24.710;2023-05-29T05:45:40;96453.59;;;13.09;100.00
44001;BME280;29660;42.892;24.710;2023-05-29T05:51:04;96960.69;;;16.06;100.00
44001;BME280;29660;42.892;24.710;2023-05-29T05:56:29;96725.34;;;15.02;100.00
44001;BME280;29660;42.892;24.710;2023-05-29T06:01:51;96813.72;;;15.71;100.00
44001;BME280;29660;42.892;24.710;2023-05-29T06:07:14;96788.25;;;15.99;100.00
44001;BME280;29660;42.892;24.710;2023-05-29T06:12:36;96765.84;;;16.36;100.00
44001;BME280;29660;42.892;24.710;2023-05-29T06:18:09;96651.03;;;15.86;100.00
44001;BME280;29660;42.892;24.710;2023-05-29T06:23:32;96482.97;;;15.26;100.00
44001;BME280;29660;42.892;24.710;2023-05-29T06:28:56;96468.16;;;15.41;100.00
44001;BME280;29660;42.892;24.710;2023-05-29T06:34:18;96920.66;;;18.70;100.00
44001;BME280;29660;42.892;24.710;2023-05-29T06:39:44;96534.16;;;16.29;100.00
44001;BME280;29660;42.892;24.710;2023-05-29T06:45:07;96731.53;;;17.61;100.00
44001;BME280;29660;42.892;24.710;2023-05-29T06:50:30;96869.97;;;18.38;100.00
44001;BME280;29660;42.892;24.710;2023-05-29T06:56:00;96464.06;;;16.01;100.00
44001;BME280;29660;42.892;24.710;2023-05-29T07:01:22;96916.53;;;18.72;100.00
44001;BME280;29660;42.892;24.710;2023-05-29T07:06:50;96373.63;;;14.93;100.00
44001;BME280;29660;42.892;24.710;2023-05-29T07:12:13;96156.78;;;13.99;100.00
44001;BME280;29660;42.892;24.710;2023-05-29T07:17:36;96400.38;;;15.35;100.00
44001;BME280;29660;42.892;24.710;2023-05-29T07:23:08;96102.22;;;13.20;100.00
44001;BME280;29660;42.892;24.710;2023-05-29T07:28:31;96424.28;;;15.16;100.00
44001;BME280;29660;42.892;24.710;2023-05-29T07:33:54;96551.41;;;16.28;100.00
44001;BME280;29660;42.892;24.710;2023-05-29T07:39:17;96905.94;;;18.67;100.00
44001;BME280;29660;42.892;24.710;2023-05-29T07:44:39;96904.66;;;18.89;100.00
44001;BME280;29660;42.892;24.710;2023-05-29T07:50:04;96774.66;;;18.10;100.00
44001;BME280;29660;42.892;24.710;2023-05-29T07:55:28;96141.06;;;14.43;100.00
44001;BME280;29660;42.892;24.710;2023-05-29T08:00:51;96420.47;;;16.32;100.00
44001;BME280;29660;42.892;24.710;2023-05-29T08:06:13;96385.72;;;15.78;100.00
44001;BME280;29660;42.892;24.710;2023-05-29T08:11:36;96798.28;;;18.01;100.00
44001;BME280;29660;42.892;24.710;2023-05-29T08:16:58;96527.03;;;15.88;100.00
44001;BME280;29660;42.892;24.710;2023-05-29T08:22:20;96449.56;;;15.15;100.00
44001;BME280;29660;42.892;24.710;2023-05-29T08:27:49;96402.97;;;14.57;100.00
44001;BME280;29660;42.892;24.710;2023-05-29T08:33:11;96895.81;;;17.66;100.00
44001;BME280;29660;42.892;24.710;2023-05-29T08:38:34;96504.34;;;15.02;100.00
44001;BME280;29660;42.892;24.710;2023-05-29T08:43:59;96547.75;;;15.04;100.00
44001;BME280;29660;42.892;24.710;2023-05-29T08:49:25;96949.56;;;17.17;100.00
44001;BME280;29660;42.892;24.710;2023-05-29T08:54:52;96871.66;;;16.49;100.00
44001;BME280;29660;42.892;24.710;2023-05-29T09:00:15;96903.88;;;16.58;100.00
44001;BME280;29660;42.892;24.710;2023-05-29T09:05:41;96980.78;;;16.97;100.00
44001;BME280;29660;42.892;24.710;2023-05-29T09:11:04;96508.00;;;13.99;100.00
44001;BME280;29660;42.892;24.710;2023-05-29T09:16:27;96508.44;;;14.02;100.00
44001;BME280;29660;42.892;24.710;2023-05-29T09:21:49;96824.22;;;16.15;100.00
44001;BME280;29660;42.892;24.710;2023-05-29T09:27:11;96960.56;;;17.12;100.00
44001;BME280;29660;42.892;24.710;2023-05-29T09:32:33;96916.47;;;16.96;100.00
44001;BME280;29660;42.892;24.710;2023-05-29T09:37:56;96385.38;;;13.41;100.00
44001;BME280;29660;42.892;24.710;2023-05-29T09:43:19;96950.09;;;17.31;100.00
44001;BME280;29660;42.892;24.710;2023-05-29T09:48:42;96752.06;;;16.17;100.00
44001;BME280;29660;42.892;24.710;2023-05-29T09:59:37;96955.00;;;17.50;100.00
44001;BME280;29660;42.892;24.710;2023-05-29T10:05:00;96640.06;;;15.50;100.00
44001;BME280;29660;42.892;24.710;2023-05-29T10:10:25;96488.81;;;14.57;100.00
44001;BME280;29660;42.892;24.710;2023-05-29T10:15:49;96539.28;;;14.93;100.00
44001;BME280;29660;42.892;24.710;2023-05-29T10:21:14;96935.09;;;17.55;100.00
44001;BME280;29660;42.892;24.710;2023-05-29T10:26:39;96817.16;;;16.73;100.00
44001;BME280;29660;42.892;24.710;2023-05-29T10:32:07;96981.72;;;17.76;100.00
44001;BME280;29660;42.892;24.710;2023-05-29T10:43:30;96486.00;;;15.04;100.00
44001;BME280;29660;42.892;24.710;2023-05-29T10:48:53;96835.84;;;17.24;100.00
44001;BME280;29660;42.892;24.710;2023-05-29T10:54:24;96529.88;;;15.50;100.00
44001;BME280;29660;42.892;24.710;2023-05-29T10:59:47;96772.72;;;17.25;100.00
44001;BME280;29660;42.892;24.710;2023-05-29T11:05:22;96752.94;;;17.08;100.00
44001;BME280;29660;42.892;24.710;2023-05-29T11:22:07;96103.25;;;14.36;100.00
44001;BME280;29660;42.892;24.710;2023-05-29T11:27:31;96799.88;;;19.58;100.00
44001;BME280;29660;42.892;24.710;2023-05-29T11:32:54;96891.97;;;20.09;100.00
44001;BME280;29660;42.892;24.710;2023-05-29T11:38:21;96539.78;;;17.50;100.00
44001;BME280;29660;42.892;24.710;2023-05-29T11:43:43;96872.31;;;19.65;100.00
44001;BME280;29660;42.892;24.710;2023-05-29T11:49:05;96523.13;;;17.20;100.00
44001;BME280;29660;42.892;24.710;2023-05-29T11:54:27;96788.19;;;18.94;100.00
44001;BME280;29660;42.892;24.710;2023-05-29T11:59:50;96409.84;;;16.88;100.00
44001;BME280;29660;42.892;24.710;2023-05-29T12:05:16;96555.16;;;17.90;100.00
44001;BME280;29660;42.892;24.710;2023-05-29T12:10:49;96727.53;;;19.55;99.89
44001;BME280;29660;42.892;24.710;2023-05-29T12:16:12;96571.50;;;18.88;95.83
44001;BME280;29660;42.892;24.710;2023-05-29T12:21:34;96371.69;;;18.06;88.32
44001;BME280;29660;42.892;24.710;2023-05-29T12:26:57;96727.22;;;20.11;91.55
44001;BME280;29660;42.892;24.710;2023-05-29T12:32:19;96398.06;;;17.97;94.79
44001;BME280;29660;42.892;24.710;2023-05-29T12:37:46;96322.88;;;17.48;94.55
44001;BME280;29660;42.892;24.710;2023-05-29T12:43:09;96002.38;;;15.21;96.68
44001;BME280;29660;42.892;24.710;2023-05-29T12:48:31;96393.88;;;17.83;97.66
44001;BME280;29660;42.892;24.710;2023-05-29T12:53:53;96874.22;;;20.82;100.00
44001;BME280;29660;42.892;24.710;2023-05-29T12:59:17;96656.63;;;19.46;100.00
44001;BME280;29660;42.892;24.710;2023-05-29T13:04:39;96818.19;;;20.31;94.65
44001;BME280;29660;42.892;24.710;2023-05-29T13:10:01;96703.13;;;19.86;95.57
44001;BME280;29660;42.892;24.710;2023-05-29T13:15:26;96333.63;;;17.16;97.16
44001;BME280;29660;42.892;24.710;2023-05-29T13:20:48;96681.31;;;19.79;92.73
44001;BME280;29660;42.892;24.710;2023-05-29T13:26:10;95993.09;;;15.75;85.85
44001;BME280;29660;42.892;24.710;2023-05-29T13:31:33;96688.53;;;20.69;91.13
44001;BME280;29660;42.892;24.710;2023-05-29T13:36:55;96416.22;;;19.21;94.21
44001;BME280;29660;42.892;24.710;2023-05-29T13:42:18;96405.06;;;19.23;87.53
44001;BME280;29660;42.892;24.710;2023-05-29T13:47:40;96802.31;;;21.76;93.01
44001;BME280;29660;42.892;24.710;2023-05-29T13:53:02;96764.75;;;21.09;87.97
44001;BME280;29660;42.892;24.710;2023-05-29T13:58:25;96818.22;;;20.90;91.95
44001;BME280;29660;42.892;24.710;2023-05-29T14:03:47;96774.78;;;20.08;92.56
44001;BME280;29660;42.892;24.710;2023-05-29T14:09:09;96402.25;;;17.34;96.48
44001;BME280;29660;42.892;24.710;2023-05-29T14:14:32;96408.06;;;16.80;100.00
44001;BME280;29660;42.892;24.710;2023-05-29T14:19:56;96352.44;;;15.70;100.00
44001;BME280;29660;42.892;24.710;2023-05-29T14:25:18;96808.56;;;18.35;100.00
44001;BME280;29660;42.892;24.710;2023-05-29T14:30:40;96726.25;;;17.64;100.00
44001;BME280;29660;42.892;24.710;2023-05-29T14:36:03;96652.25;;;17.13;100.00
44001;BME280;29660;42.892;24.710;2023-05-29T14:41:26;96680.31;;;17.24;100.00
44001;BME280;29660;42.892;24.710;2023-05-29T14:46:48;96811.44;;;18.02;100.00
44001;BME280;29660;42.892;24.710;2023-05-29T14:52:10;96753.56;;;17.75;100.00
44001;BME280;29660;42.892;24.710;2023-05-29T14:57:32;96894.72;;;18.40;100.00
44001;BME280;29660;42.892;24.710;2023-05-29T15:02:56;96852.91;;;18.10;100.00
44001;BME280;29660;42.892;24.710;2023-05-29T15:08:21;96705.69;;;17.11;100.00
44001;BME280;29660;42.892;24.710;2023-05-29T15:13:43;96861.56;;;17.91;100.00
44001;BME280;29660;42.892;24.710;2023-05-29T15:19:06;96386.53;;;14.79;100.00
44001;BME280;29660;42.892;24.710;2023-05-29T15:24:28;96846.84;;;17.76;100.00
44001;BME280;29660;42.892;24.710;2023-05-29T15:29:51;96861.09;;;17.64;100.00
44001;BME280;29660;42.892;24.710;2023-05-29T15:35:14;96340.94;;;14.29;100.00
44001;BME280;29660;42.892;24.710;2023-05-29T15:40:37;96852.38;;;17.34;100.00
44001;BME280;29660;42.892;24.710;2023-05-29T15:45:59;96889.63;;;17.20;100.00
44001;BME280;29660;42.892;24.710;2023-05-29T15:51:22;96695.19;;;15.85;100.00
44001;BME280;29660;42.892;24.710;2023-05-29T15:56:44;96832.06;;;16.91;100.00
44001;BME280;29660;42.892;24.710;2023-05-29T16:02:06;96664.16;;;15.67;100.00
44001;BME280;29660;42.892;24.710;2023-05-29T16:07:28;96299.72;;;13.15;100.00
44001;BME280;29660;42.892;24.710;2023-05-29T16:12:50;96365.50;;;13.42;100.00
44001;BME280;29660;42.892;24.710;2023-05-29T16:18:13;96325.59;;;12.85;100.00
44001;BME280;29660;42.892;24.710;2023-05-29T16:23:35;96217.91;;;11.97;100.00
44001;BME280;29660;42.892;24.710;2023-05-29T16:28:58;96668.25;;;14.76;100.00
44001;BME280;29660;42.892;24.710;2023-05-29T16:34:20;96292.13;;;12.18;100.00
44001;BME280;29660;42.892;24.710;2023-05-29T16:39:43;96446.97;;;13.15;100.00
44001;BME280;29660;42.892;24.710;2023-05-29T16:45:05;96749.66;;;15.06;100.00
44001;BME280;29660;42.892;24.710;2023-05-29T17:00:39;96068.16;;;10.19;100.00
44001;BME280;29660;42.892;24.710;2023-05-29T17:06:01;96408.34;;;12.38;100.00
44001;BME280;29660;42.892;24.710;2023-05-29T17:11:23;96107.50;;;10.53;100.00
44001;BME280;29660;42.892;24.710;2023-05-29T17:16:47;96781.09;;;14.96;100.00
44001;BME280;29660;42.892;24.710;2023-05-29T17:22:09;96396.25;;;12.40;100.00
44001;BME280;29660;42.892;24.710;2023-05-29T17:27:32;96567.94;;;13.17;100.00
44001;BME280;29660;42.892;24.710;2023-05-29T17:32:54;96763.47;;;14.78;100.00
44001;BME280;29660;42.892;24.710;2023-05-29T17:38:16;96061.38;;;10.13;100.00
44001;BME280;29660;42.892;24.710;2023-05-29T17:43:38;96466.94;;;12.65;100.00
44001;BME280;29660;42.892;24.710;2023-05-29T17:49:01;96491.38;;;12.81;100.00
44001;BME280;29660;42.892;24.710;2023-05-29T17:54:24;96429.91;;;12.41;100.00
44001;BME280;29660;42.892;24.710;2023-05-29T17:59:47;96902.53;;;15.37;100.00
44001;BME280;29660;42.892;24.710;2023-05-29T18:05:10;96423.59;;;12.20;100.00
44001;BME280;29660;42.892;24.710;2023-05-29T18:10:33;96453.47;;;12.22;100.00
44001;BME280;29660;42.892;24.710;2023-05-29T18:15:55;96896.88;;;14.69;100.00
44001;BME280;29660;42.892;24.710;2023-05-29T18:21:17;96470.84;;;12.02;100.00
44001;BME280;29660;42.892;24.710;2023-05-29T18:26:40;96851.69;;;14.36;100.00
44001;BME280;29660;42.892;24.710;2023-05-29T18:32:03;96955.50;;;14.84;100.00
44001;BME280;29660;42.892;24.710;2023-05-29T18:37:25;96876.91;;;14.18;100.00
44001;BME280;29660;42.892;24.710;2023-05-29T18:42:48;96473.84;;;11.47;100.00
44001;BME280;29660;42.892;24.710;2023-05-29T18:48:10;96971.72;;;14.53;100.00
44001;BME280;29660;42.892;24.710;2023-05-29T18:53:32;96126.22;;;9.04;100.00
44001;BME280;29660;42.892;24.710;2023-05-29T18:58:54;96538.53;;;11.66;100.00
44001;BME280;29660;42.892;24.710;2023-05-29T19:04:16;96995.19;;;14.47;100.00
44001;BME280;29660;42.892;24.710;2023-05-29T19:09:39;97009.44;;;14.57;100.00
44001;BME280;29660;42.892;24.710;2023-05-29T19:15:02;96524.44;;;11.29;100.00
44001;BME280;29660;42.892;24.710;2023-05-29T19:20:24;97018.69;;;14.42;100.00
44001;BME280;29660;42.892;24.710;2023-05-29T19:25:47;97023.19;;;14.55;100.00
44001;BME280;29660;42.892;24.710;2023-05-29T19:31:09;96533.69;;;11.46;100.00
44001;BME280;29660;42.892;24.710;2023-05-29T19:36:33;96930.06;;;14.07;100.00
44001;BME280;29660;42.892;24.710;2023-05-29T19:41:56;96915.78;;;13.89;100.00
44001;BME280;29660;42.892;24.710;2023-05-29T19:47:18;96874.22;;;13.61;100.00
44001;BME280;29660;42.892;24.710;2023-05-29T19:52:41;97013.31;;;14.42;100.00
44001;BME280;29660;42.892;24.710;2023-05-29T19:58:03;96613.28;;;11.80;100.00
44001;BME280;29660;42.892;24.710;2023-05-29T20:03:26;96520.94;;;11.20;100.00
44001;BME280;29660;42.892;24.710;2023-05-29T20:08:51;96871.44;;;13.43;100.00
44001;BME280;29660;42.892;24.710;2023-05-29T20:14:13;96982.63;;;14.17;100.00
44001;BME280;29660;42.892;24.710;2023-05-29T20:19:35;96874.81;;;13.49;100.00
44001;BME280;29660;42.892;24.710;2023-05-29T20:24:57;96951.63;;;13.62;100.00
44001;BME280;29660;42.892;24.710;2023-05-29T20:30:20;96511.13;;;10.93;100.00
44001;BME280;29660;42.892;24.710;2023-05-29T20:35:42;96497.72;;;10.85;100.00
44001;BME280;29660;42.892;24.710;2023-05-29T20:41:05;96984.38;;;13.90;100.00
44001;BME280;29660;42.892;24.710;2023-05-29T20:46:27;96956.22;;;13.70;100.00
44001;BME280;29660;42.892;24.710;2023-05-29T20:51:49;96475.03;;;10.60;100.00
44001;BME280;29660;42.892;24.710;2023-05-29T20:57:12;96589.63;;;11.28;100.00
44001;BME280;29660;42.892;24.710;2023-05-29T21:02:34;96963.69;;;13.82;100.00
44001;BME280;29660;42.892;24.710;2023-05-29T21:07:56;96990.25;;;13.92;100.00
44001;BME280;29660;42.892;24.710;2023-05-29T21:13:18;96665.84;;;11.71;100.00
44001;BME280;29660;42.892;24.710;2023-05-29T21:18:43;96993.28;;;13.99;100.00
44001;BME280;29660;42.892;24.710;2023-05-29T21:24:05;96954.69;;;13.78;100.00
44001;BME280;29660;42.892;24.710;2023-05-29T21:29:32;96440.09;;;10.47;100.00
44001;BME280;29660;42.892;24.710;2023-05-29T21:34:54;96422.16;;;10.39;100.00
44001;BME280;29660;42.892;24.710;2023-05-29T21:40:17;96496.31;;;10.87;100.00
44001;BME280;29660;42.892;24.710;2023-05-29T21:45:41;96522.44;;;11.13;100.00
44001;BME280;29660;42.892;24.710;2023-05-29T21:51:04;96470.94;;;10.76;100.00
44001;BME280;29660;42.892;24.710;2023-05-29T21:56:28;96583.97;;;11.30;100.00
44001;BME280;29660;42.892;24.710;2023-05-29T22:01:51;96510.75;;;10.86;100.00
44001;BME280;29660;42.892;24.710;2023-05-29T22:07:14;96524.94;;;10.95;100.00
44001;BME280;29660;42.892;24.710;2023-05-29T22:12:36;96548.28;;;10.76;100.00
44001;BME280;29660;42.892;24.710;2023-05-29T22:17:58;96743.31;;;12.43;100.00
44001;BME280;29660;42.892;24.710;2023-05-29T22:23:23;96564.25;;;11.17;100.00
44001;BME280;29660;42.892;24.710;2023-05-29T22:28:46;96960.34;;;13.68;100.00
44001;BME280;29660;42.892;24.710;2023-05-29T22:34:09;96869.41;;;13.18;100.00
44001;BME280;29660;42.892;24.710;2023-05-29T22:39:31;97035.78;;;13.84;100.00
44001;BME280;29660;42.892;24.710;2023-05-29T22:44:53;97022.19;;;13.80;100.00
44001;BME280;29660;42.892;24.710;2023-05-29T22:50:15;96864.63;;;13.29;100.00
44001;BME280;29660;42.892;24.710;2023-05-29T22:55:38;96857.84;;;13.09;100.00
44001;BME280;29660;42.892;24.710;2023-05-29T23:01:00;96411.56;;;10.48;100.00
44001;BME280;29660;42.892;24.710;2023-05-29T23:06:22;96935.53;;;13.93;100.00
44001;BME280;29660;42.892;24.710;2023-05-29T23:11:44;96073.91;;;8.31;100.00
44001;BME280;29660;42.892;24.710;2023-05-29T23:17:07;96883.47;;;13.55;100.00
44001;BME280;29660;42.892;24.710;2023-05-29T23:22:29;96528.03;;;11.25;100.00
44001;BME280;29660;42.892;24.710;2023-05-29T23:27:51;96583.75;;;11.63;100.00
44001;BME280;29660;42.892;24.710;2023-05-29T23:33:14;96606.28;;;11.70;100.00
44001;BME280;29660;42.892;24.710;2023-05-29T23:38:36;96944.16;;;13.82;100.00
44001;BME280;29660;42.892;24.710;2023-05-29T23:43:58;96941.03;;;13.88;100.00
44001;BME280;29660;42.892;24.710;2023-05-29T23:49:21;96863.63;;;13.02;100.00
44001;BME280;29660;42.892;24.710;2023-05-29T23:54:43;96464.03;;;10.89;100.00
